Tumacacori, Arizona
Current Conditions -  °F | °C
As of 9:54 PM on Wednesday 26 Nov 2014 (Local Time) from KOLS Reporting Station
Clear Clear  
Wind Chill: 49°   Ceiling: Unl
Heat Index: 49°   Visibility: 10mi
Dew Point: 17°   Wind: 3mph
Humidity: 28%   Direction: 150°SSE
Pressure: 30.27"   Gusts: NA
Location:  31.57°N, 111.05°W
Report Text: KOLS 270454Z AUTO 15003KT 10SM CLR 09/M08 A3027 RMK AO2 SLP221 T00941083
Loading
Personal Weather Stations






























Interactive Weather Map New forecast layout! Learn more

10-Day Weather Forecast

Advertisements
Track Severe Weather on mobile